New Danville, Pennsylvania
Current Conditions -  °F | °C
As of 6:19 PM on Monday 22 Dec 2014 (Local Time) from KLNS Reporting Station
Light Rain Light Rain  
Wind Chill: 37°   Ceiling: 5500
Heat Index: 37°   Visibility: 8mi
Dew Point: 32°   Wind: 3mph
Humidity: 82%   Direction: 30°NNE
Pressure: 30.17"   Gusts: NA
Location:  40.0115°N, 76.3553°W
Report Text: KLNS 222319Z 03003KT 8SM -RA SCT023 SCT040 OVC055 03/00 A3017 RMK AO2 UPB06E08 P0000 T00280000
Loading
Personal Weather Stations






























Interactive Weather Map New forecast layout! Learn more

10-Day Weather Forecast

Advertisements
Track Severe Weather on mobile